createdAt,value
2023-03-21T00:01:53.230Z,9.41
2023-03-21T00:04:21.495Z,9.42
2023-03-21T00:06:49.016Z,9.42
2023-03-21T00:09:15.843Z,9.42
2023-03-21T00:11:42.976Z,9.43
2023-03-21T00:14:14.416Z,9.42
2023-03-21T00:16:41.828Z,9.42
2023-03-21T00:19:09.994Z,9.41
2023-03-21T00:21:51.918Z,9.41
2023-03-21T00:24:25.933Z,9.44
2023-03-21T00:26:53.052Z,9.45
2023-03-21T00:29:20.756Z,9.47
2023-03-21T00:31:47.584Z,9.47
2023-03-21T00:34:14.428Z,9.44
2023-03-21T00:36:41.342Z,9.42
2023-03-21T00:39:08.164Z,9.40
2023-03-21T00:41:42.375Z,9.41
2023-03-21T00:44:13.935Z,9.44
2023-03-21T00:46:51.601Z,9.46
2023-03-21T00:49:28.010Z,9.49
2023-03-21T00:51:59.442Z,9.51
2023-03-21T00:54:31.503Z,9.47
2023-03-21T00:56:58.496Z,9.45
2023-03-21T00:59:25.286Z,9.45
2023-03-21T01:01:53.638Z,9.47
2023-03-21T01:04:21.554Z,9.50
2023-03-21T01:06:48.340Z,9.53
2023-03-21T01:09:18.011Z,9.57
2023-03-21T01:11:45.687Z,9.58
2023-03-21T01:14:22.606Z,9.61
2023-03-21T01:16:53.292Z,9.64
2023-03-21T01:19:35.192Z,9.67
2023-03-21T01:22:08.749Z,9.72
2023-03-21T01:24:40.442Z,9.76
2023-03-21T01:27:13.673Z,9.78
2023-03-21T01:29:40.443Z,9.78
2023-03-21T01:32:07.600Z,9.79
2023-03-21T01:34:34.528Z,9.81
2023-03-21T01:37:01.686Z,9.82
2023-03-21T01:39:29.248Z,9.84
2023-03-21T01:41:56.011Z,9.85
2023-03-21T01:44:25.939Z,9.84
2023-03-21T01:47:07.762Z,9.82
2023-03-21T01:49:46.302Z,9.78
2023-03-21T01:52:35.868Z,9.75
2023-03-21T01:55:08.549Z,9.74
2023-03-21T01:58:02.304Z,9.72
2023-03-21T02:00:34.196Z,9.70
2023-03-21T02:03:18.794Z,9.67
2023-03-21T02:06:00.543Z,9.65
2023-03-21T02:08:39.696Z,9.64
2023-03-21T02:11:10.613Z,9.62
2023-03-21T02:13:41.361Z,9.62
2023-03-21T02:16:24.791Z,9.60
2023-03-21T02:19:22.967Z,9.56
2023-03-21T02:22:14.496Z,9.52
2023-03-21T02:25:01.469Z,9.51
2023-03-21T02:27:41.980Z,9.51
2023-03-21T02:30:20.256Z,9.53
2023-03-21T02:33:16.847Z,9.52
2023-03-21T02:35:54.439Z,9.49
2023-03-21T02:38:28.189Z,9.48
2023-03-21T02:41:19.955Z,9.46
2023-03-21T02:44:03.786Z,9.43
2023-03-21T02:46:45.296Z,9.42
2023-03-21T02:49:22.056Z,9.42
2023-03-21T02:51:51.010Z,9.44
2023-03-21T02:54:34.975Z,9.42
2023-03-21T02:57:09.920Z,9.37
2023-03-21T02:59:44.550Z,9.35
2023-03-21T03:02:26.752Z,9.31
2023-03-21T03:04:53.644Z,9.28
2023-03-21T03:07:31.377Z,9.25
2023-03-21T03:10:13.368Z,9.23
2023-03-21T03:12:52.437Z,9.22
2023-03-21T03:15:34.681Z,9.16
2023-03-21T03:18:26.586Z,9.09
2023-03-21T03:21:35.264Z,8.99
2023-03-21T03:24:07.651Z,8.90
2023-03-21T03:26:39.005Z,8.84
2023-03-21T03:29:10.013Z,8.80
2023-03-21T03:31:43.493Z,8.79
2023-03-21T03:34:15.275Z,8.79
2023-03-21T03:36:56.401Z,8.80
2023-03-21T03:39:32.347Z,8.78
2023-03-21T03:42:18.486Z,8.76
2023-03-21T03:44:57.411Z,8.77
2023-03-21T03:47:37.807Z,8.78
2023-03-21T03:50:25.480Z,8.78
2023-03-21T03:52:59.797Z,8.81
2023-03-21T03:55:34.611Z,8.82
2023-03-21T03:58:19.601Z,8.80
2023-03-21T04:00:49.721Z,8.74
2023-03-21T04:03:16.573Z,8.72
2023-03-21T04:05:46.348Z,8.70
2023-03-21T04:08:16.247Z,8.68
2023-03-21T04:10:46.430Z,8.67
2023-03-21T04:13:13.408Z,8.65
2023-03-21T04:15:56.247Z,8.59
2023-03-21T04:18:23.850Z,8.56
2023-03-21T04:20:51.577Z,8.54
2023-03-21T04:23:19.599Z,8.53
2023-03-21T04:25:55.946Z,8.53
2023-03-21T04:28:26.050Z,8.53
2023-03-21T04:31:08.728Z,8.53
2023-03-21T04:33:45.260Z,8.54
2023-03-21T04:36:25.170Z,8.55
2023-03-21T04:38:53.981Z,8.53
2023-03-21T04:41:20.959Z,8.54
2023-03-21T04:43:48.606Z,8.57
2023-03-21T04:46:15.663Z,8.61
2023-03-21T04:48:42.561Z,8.63
2023-03-21T04:51:09.416Z,8.66
2023-03-21T04:53:38.235Z,8.66
2023-03-21T04:56:06.785Z,8.64
2023-03-21T04:58:34.506Z,8.63
2023-03-21T05:01:02.675Z,8.61
2023-03-21T05:03:30.648Z,8.62
2023-03-21T05:05:58.378Z,8.64
2023-03-21T05:08:25.210Z,8.63
2023-03-21T05:10:52.437Z,8.62
2023-03-21T05:13:20.990Z,8.62
2023-03-21T05:15:48.937Z,8.63
2023-03-21T05:18:15.796Z,8.63
2023-03-21T05:20:57.481Z,8.63
2023-03-21T05:23:24.945Z,8.64
2023-03-21T05:25:52.103Z,8.67
2023-03-21T05:28:31.889Z,8.68
2023-03-21T05:30:59.220Z,8.66
2023-03-21T05:33:26.513Z,8.65
2023-03-21T05:35:53.437Z,8.65
2023-03-21T05:38:20.502Z,8.68
2023-03-21T05:40:51.675Z,8.72
2023-03-21T05:43:18.678Z,8.76
2023-03-21T05:45:48.356Z,8.81
2023-03-21T05:48:15.879Z,8.86
2023-03-21T05:50:58.014Z,8.91
2023-03-21T05:53:25.668Z,8.93
2023-03-21T05:55:52.534Z,8.94
2023-03-21T05:58:35.900Z,8.94
2023-03-21T06:01:02.734Z,8.93
2023-03-21T06:03:31.164Z,8.93
2023-03-21T06:06:03.917Z,8.98
2023-03-21T06:08:36.886Z,9.09
2023-03-21T06:11:03.831Z,9.22
2023-03-21T06:13:32.941Z,9.31
2023-03-21T06:16:00.044Z,9.37
2023-03-21T06:18:28.096Z,9.40
2023-03-21T06:21:00.400Z,9.39
2023-03-21T06:23:27.219Z,9.34
2023-03-21T06:25:54.613Z,9.31
2023-03-21T06:28:24.577Z,9.30
2023-03-21T06:30:52.615Z,9.30
2023-03-21T06:33:22.390Z,9.33
2023-03-21T06:35:54.295Z,9.36
2023-03-21T06:38:22.226Z,9.39
2023-03-21T06:40:49.570Z,9.45
2023-03-21T06:43:17.341Z,9.51
2023-03-21T06:45:45.396Z,9.54
2023-03-21T06:48:12.444Z,9.54
2023-03-21T06:50:49.445Z,9.55
2023-03-21T06:53:17.332Z,9.54
2023-03-21T06:56:04.462Z,9.54
2023-03-21T06:58:32.465Z,9.55
2023-03-21T07:01:01.890Z,9.56
2023-03-21T07:03:31.825Z,9.57
2023-03-21T07:06:07.351Z,9.54
2023-03-21T07:08:34.715Z,9.56
2023-03-21T07:11:02.179Z,9.56
2023-03-21T07:13:29.009Z,9.59
2023-03-21T07:16:02.916Z,9.60
2023-03-21T07:18:31.221Z,9.61
2023-03-21T07:20:58.608Z,9.60
2023-03-21T07:23:28.199Z,9.62
2023-03-21T07:25:56.152Z,9.64
2023-03-21T07:28:23.299Z,9.67
2023-03-21T07:30:55.308Z,9.68
2023-03-21T07:33:23.248Z,9.71
2023-03-21T07:35:51.981Z,9.72
2023-03-21T07:38:19.580Z,9.70
2023-03-21T07:40:48.454Z,9.69
2023-03-21T07:43:16.085Z,9.65
2023-03-21T07:45:44.780Z,9.63
2023-03-21T07:48:13.086Z,9.62
2023-03-21T07:50:41.113Z,9.61
2023-03-21T07:53:08.576Z,9.64
2023-03-21T07:55:36.050Z,9.67
2023-03-21T07:58:04.346Z,9.67
2023-03-21T08:00:31.831Z,9.73
2023-03-21T08:02:59.795Z,9.74
2023-03-21T08:05:30.264Z,9.76
2023-03-21T08:07:57.735Z,9.80
2023-03-21T08:10:24.911Z,9.89
2023-03-21T08:12:51.767Z,10.03
2023-03-21T08:15:18.600Z,10.19
2023-03-21T08:17:46.604Z,10.26
2023-03-21T08:20:16.508Z,10.34
2023-03-21T08:22:44.161Z,10.47
2023-03-21T08:25:14.297Z,10.57
2023-03-21T08:27:42.785Z,10.61
2023-03-21T08:30:12.474Z,10.60
2023-03-21T08:32:41.912Z,10.63
2023-03-21T08:35:11.400Z,10.70
2023-03-21T08:37:39.558Z,10.78
2023-03-21T08:40:11.374Z,10.81
2023-03-21T08:42:39.020Z,10.82
2023-03-21T08:45:06.785Z,10.83
2023-03-21T08:47:33.909Z,10.84
2023-03-21T08:50:00.854Z,10.83
2023-03-21T08:52:28.565Z,10.90
2023-03-21T08:54:55.784Z,10.96
2023-03-21T08:57:22.763Z,11.05
2023-03-21T08:59:49.650Z,11.11
2023-03-21T09:02:17.578Z,11.22
2023-03-21T09:04:45.071Z,11.30
2023-03-21T09:07:14.468Z,11.33
2023-03-21T09:09:41.775Z,11.36
2023-03-21T09:12:08.755Z,11.37
2023-03-21T09:14:35.960Z,11.36
2023-03-21T09:17:02.926Z,11.33
2023-03-21T09:19:30.440Z,11.37
2023-03-21T09:21:57.690Z,11.35
2023-03-21T09:24:24.659Z,11.27
2023-03-21T09:26:51.809Z,11.25
2023-03-21T09:29:21.560Z,11.25
2023-03-21T09:31:48.865Z,11.22
2023-03-21T09:34:15.888Z,11.24
2023-03-21T09:36:44.424Z,11.22
2023-03-21T09:39:12.825Z,11.23
2023-03-21T09:41:46.817Z,11.25
2023-03-21T09:44:29.077Z,11.27
2023-03-21T09:47:06.257Z,11.36
2023-03-21T09:49:40.915Z,11.49
2023-03-21T09:52:19.697Z,11.66
2023-03-21T09:54:46.788Z,11.79
2023-03-21T09:57:21.685Z,11.89
2023-03-21T09:59:51.105Z,11.90
2023-03-21T10:02:32.305Z,11.88
2023-03-21T10:05:00.818Z,11.92
2023-03-21T10:07:32.050Z,12.05
2023-03-21T10:10:01.914Z,12.20
2023-03-21T10:12:30.850Z,12.34
2023-03-21T10:15:00.784Z,12.43
2023-03-21T10:17:45.100Z,12.48
2023-03-21T10:20:12.229Z,12.47
2023-03-21T10:22:39.156Z,12.48
2023-03-21T10:25:07.754Z,12.42
2023-03-21T10:27:37.148Z,12.43
2023-03-21T10:30:07.621Z,12.39
2023-03-21T10:35:20.008Z,12.17
2023-03-21T10:37:47.310Z,12.06
2023-03-21T10:40:17.167Z,11.99
2023-03-21T10:42:44.570Z,11.97
2023-03-21T10:45:18.776Z,12.09
2023-03-21T10:47:49.276Z,12.26
2023-03-21T10:50:20.647Z,12.39
2023-03-21T10:52:51.234Z,12.53
2023-03-21T10:55:22.810Z,12.66
2023-03-21T10:57:55.068Z,12.69
2023-03-21T11:00:25.988Z,12.71
2023-03-21T11:02:54.480Z,12.76
2023-03-21T11:05:23.049Z,12.70
2023-03-21T11:08:03.029Z,12.66
2023-03-21T11:10:33.618Z,12.62
2023-03-21T11:13:06.740Z,12.57
2023-03-21T11:15:41.447Z,12.54
2023-03-21T11:18:20.517Z,12.58
2023-03-21T11:20:59.146Z,12.69
2023-03-21T11:23:29.209Z,12.85
2023-03-21T11:25:58.449Z,12.91
2023-03-21T11:28:33.458Z,12.90
2023-03-21T11:31:02.796Z,12.79
2023-03-21T11:33:40.670Z,12.68
2023-03-21T11:36:22.989Z,12.58
2023-03-21T11:38:52.479Z,12.46
2023-03-21T11:41:25.955Z,12.45
2023-03-21T11:43:54.153Z,12.45
2023-03-21T11:46:31.837Z,12.50
2023-03-21T11:49:00.717Z,12.53
2023-03-21T11:51:41.234Z,12.57
2023-03-21T11:54:27.151Z,12.63
2023-03-21T11:57:01.925Z,12.64
2023-03-21T11:59:32.246Z,12.67
2023-03-21T12:02:14.549Z,12.68
2023-03-21T12:04:47.025Z,12.73
2023-03-21T12:07:22.243Z,12.82
2023-03-21T12:10:09.267Z,12.88
2023-03-21T12:12:51.427Z,12.93
2023-03-21T12:15:27.962Z,13.00
2023-03-21T12:18:00.941Z,13.03
2023-03-21T12:20:39.845Z,13.04
2023-03-21T12:23:17.575Z,13.03
2023-03-21T12:25:54.871Z,12.99
2023-03-21T12:28:52.631Z,12.91
2023-03-21T12:31:42.456Z,12.83
2023-03-21T12:34:27.062Z,12.73
2023-03-21T12:36:57.201Z,12.63
2023-03-21T12:39:35.531Z,12.53
2023-03-21T12:42:18.145Z,12.42
2023-03-21T12:44:51.254Z,12.31
2023-03-21T12:47:24.196Z,12.18
2023-03-21T12:49:57.658Z,12.10
2023-03-21T12:52:30.707Z,12.06
2023-03-21T12:55:01.901Z,12.03
2023-03-21T12:57:47.818Z,12.05
2023-03-21T13:00:25.910Z,12.08
2023-03-21T13:03:00.119Z,12.07
2023-03-21T13:05:36.382Z,12.00
2023-03-21T13:08:18.634Z,11.99
2023-03-21T13:10:46.653Z,12.03
2023-03-21T13:13:21.932Z,12.05
2023-03-21T13:15:59.431Z,12.06
2023-03-21T13:18:34.045Z,12.11
2023-03-21T13:21:31.735Z,12.17
2023-03-21T13:24:02.212Z,12.20
2023-03-21T13:26:36.667Z,12.18
2023-03-21T13:29:13.116Z,12.18
2023-03-21T13:31:52.007Z,12.20
2023-03-21T13:34:22.867Z,12.22
2023-03-21T13:36:51.636Z,12.27
2023-03-21T13:39:24.027Z,12.32
2023-03-21T13:41:51.945Z,12.39
2023-03-21T13:44:20.558Z,12.51
2023-03-21T13:47:01.047Z,12.62
2023-03-21T13:49:34.414Z,12.70
2023-03-21T13:52:23.030Z,12.69
2023-03-21T13:54:52.592Z,12.69
2023-03-21T13:57:38.263Z,12.67
2023-03-21T14:00:22.032Z,12.62
2023-03-21T14:02:57.389Z,12.52
2023-03-21T14:05:27.168Z,12.43
2023-03-21T14:08:06.072Z,12.40
2023-03-21T14:10:42.369Z,12.39
2023-03-21T14:13:16.416Z,12.30
2023-03-21T14:18:55.773Z,12.10
2023-03-21T14:21:26.938Z,12.04
2023-03-21T14:24:00.757Z,12.04
2023-03-21T14:26:29.536Z,12.08
2023-03-21T14:28:56.319Z,12.10
2023-03-21T14:31:23.576Z,12.11
2023-03-21T14:33:54.207Z,12.15
2023-03-21T14:36:25.746Z,12.18
2023-03-21T14:38:56.635Z,12.18
2023-03-21T14:41:26.304Z,12.10
2023-03-21T14:44:08.437Z,11.97
2023-03-21T14:46:35.435Z,11.78
2023-03-21T14:49:22.641Z,11.63
2023-03-21T14:51:51.646Z,11.48
2023-03-21T14:54:19.294Z,11.43
2023-03-21T14:56:50.827Z,11.40
2023-03-21T14:59:22.217Z,11.40
2023-03-21T15:01:51.013Z,11.47
2023-03-21T15:04:18.543Z,11.54
2023-03-21T15:06:51.898Z,11.54
2023-03-21T15:09:24.870Z,11.48
2023-03-21T15:11:53.409Z,11.44
2023-03-21T15:14:26.241Z,11.42
2023-03-21T15:16:54.445Z,11.42
2023-03-21T15:19:28.957Z,11.41
2023-03-21T15:22:06.362Z,11.41
2023-03-21T15:24:39.058Z,11.38
2023-03-21T15:27:12.059Z,11.40
2023-03-21T15:29:39.133Z,11.41
2023-03-21T15:32:12.902Z,11.44
2023-03-21T15:34:39.893Z,11.47
2023-03-21T15:37:15.085Z,11.47
2023-03-21T15:39:41.853Z,11.48
2023-03-21T15:42:24.217Z,11.44
2023-03-21T15:44:55.853Z,11.39
2023-03-21T15:47:53.378Z,11.36
2023-03-21T15:50:26.775Z,11.33
2023-03-21T15:52:56.164Z,11.32
2023-03-21T15:55:27.963Z,11.29
2023-03-21T15:58:01.121Z,11.28
2023-03-21T16:00:39.635Z,11.25
2023-03-21T16:03:18.266Z,11.19
2023-03-21T16:06:02.337Z,11.15
2023-03-21T16:08:35.863Z,11.10
2023-03-21T16:11:07.934Z,11.08
2023-03-21T16:13:34.681Z,11.07
2023-03-21T16:16:01.490Z,11.07
2023-03-21T16:18:29.595Z,11.04
2023-03-21T16:20:59.382Z,11.03
2023-03-21T16:23:26.751Z,10.95
2023-03-21T16:25:57.868Z,10.90
2023-03-21T16:28:24.752Z,10.81
2023-03-21T16:30:51.632Z,10.72
2023-03-21T16:33:18.452Z,10.65
2023-03-21T16:35:45.257Z,10.60
2023-03-21T16:38:12.871Z,10.57
2023-03-21T16:40:42.467Z,10.56
2023-03-21T16:43:10.806Z,10.54
2023-03-21T16:45:38.219Z,10.51
2023-03-21T16:48:05.737Z,10.45
2023-03-21T16:50:37.233Z,10.39
2023-03-21T16:53:04.326Z,10.34
2023-03-21T16:55:33.652Z,10.29
2023-03-21T16:58:01.155Z,10.25
2023-03-21T17:00:30.887Z,10.21
2023-03-21T17:03:01.853Z,10.17
2023-03-21T17:05:30.923Z,10.11
2023-03-21T17:08:02.130Z,10.03
2023-03-21T17:10:31.563Z,9.96
2023-03-21T17:12:58.649Z,9.89
2023-03-21T17:15:25.671Z,9.84
2023-03-21T17:17:55.591Z,9.81
2023-03-21T17:20:26.507Z,9.81
2023-03-21T17:22:53.296Z,9.82
2023-03-21T17:25:20.994Z,9.85
2023-03-21T17:27:48.739Z,9.87
2023-03-21T17:30:33.258Z,9.89
2023-03-21T17:33:00.386Z,9.87
2023-03-21T17:35:27.892Z,9.86
2023-03-21T17:37:58.416Z,9.85
2023-03-21T17:40:29.683Z,9.85
2023-03-21T17:42:57.420Z,9.83
2023-03-21T17:45:24.554Z,9.81
2023-03-21T17:47:52.153Z,9.75
2023-03-21T17:50:22.671Z,9.71
2023-03-21T17:52:50.845Z,9.67
2023-03-21T17:55:21.102Z,9.65
2023-03-21T17:57:49.182Z,9.59
2023-03-21T18:00:22.813Z,9.55
2023-03-21T18:02:50.791Z,9.53
2023-03-21T18:05:18.183Z,9.52
2023-03-21T18:08:08.784Z,9.51
2023-03-21T18:10:33.066Z,9.50
2023-03-21T18:13:00.342Z,9.47
2023-03-21T18:15:30.031Z,9.45
2023-03-21T18:17:58.308Z,9.43
2023-03-21T18:20:49.779Z,9.43
2023-03-21T18:23:15.989Z,9.42
2023-03-21T18:25:43.087Z,9.41
2023-03-21T18:28:12.322Z,9.40
2023-03-21T18:31:06.922Z,9.39
2023-03-21T18:33:27.580Z,9.33
2023-03-21T18:35:59.167Z,9.26
2023-03-21T18:38:28.142Z,9.21
2023-03-21T18:40:55.454Z,9.17
2023-03-21T18:46:09.631Z,9.19
2023-03-21T18:48:36.833Z,9.20
2023-03-21T18:51:04.587Z,9.21
2023-03-21T18:53:31.603Z,9.18
2023-03-21T18:55:58.461Z,9.13
2023-03-21T18:58:25.580Z,9.11
2023-03-21T19:00:53.833Z,9.11
2023-03-21T19:03:35.356Z,9.11
2023-03-21T19:06:05.004Z,9.12
2023-03-21T19:08:34.105Z,9.13
2023-03-21T19:11:05.566Z,9.15
2023-03-21T19:13:33.623Z,9.17
2023-03-21T19:16:02.443Z,9.16
2023-03-21T19:18:52.043Z,9.14
2023-03-21T19:21:19.269Z,9.14
2023-03-21T19:26:32.908Z,9.16
2023-03-21T19:28:59.703Z,9.14
2023-03-21T19:31:27.248Z,9.11
2023-03-21T19:33:54.125Z,9.09
2023-03-21T19:36:23.136Z,9.05
2023-03-21T19:38:51.036Z,9.01
2023-03-21T19:41:20.247Z,8.93
2023-03-21T19:43:54.605Z,8.86
2023-03-21T19:46:24.856Z,8.85
2023-03-21T19:48:56.396Z,8.87
2023-03-21T19:51:29.283Z,8.87
2023-03-21T19:53:57.200Z,8.89
2023-03-21T19:56:27.059Z,8.90
2023-03-21T19:58:56.117Z,8.91
2023-03-21T20:01:24.926Z,8.91
2023-03-21T20:03:52.410Z,8.90
2023-03-21T20:06:22.422Z,8.90
2023-03-21T20:09:27.165Z,8.88
2023-03-21T20:11:37.934Z,8.84
2023-03-21T20:14:05.465Z,8.80
2023-03-21T20:16:36.005Z,8.74
2023-03-21T20:19:06.203Z,8.72
2023-03-21T20:21:42.202Z,8.70
2023-03-21T20:24:12.794Z,8.69
2023-03-21T20:26:40.273Z,8.69
2023-03-21T20:29:48.735Z,8.69
2023-03-21T20:31:54.311Z,8.68
2023-03-21T20:34:21.784Z,8.68
2023-03-21T20:36:48.957Z,8.66
2023-03-21T20:39:15.979Z,8.63
2023-03-21T20:41:43.080Z,8.63
2023-03-21T20:46:57.062Z,8.63
2023-03-21T20:49:24.426Z,8.63
2023-03-21T20:54:38.742Z,8.60
2023-03-21T20:57:05.736Z,8.54
2023-03-21T20:59:32.723Z,8.51
2023-03-21T21:02:00.206Z,8.47
2023-03-21T21:04:48.117Z,8.44
2023-03-21T21:07:21.085Z,8.43
2023-03-21T21:09:48.819Z,8.44
2023-03-21T21:12:19.381Z,8.43
2023-03-21T21:14:48.005Z,8.41
2023-03-21T21:17:31.161Z,8.36
2023-03-21T21:20:15.980Z,8.32
2023-03-21T21:22:46.108Z,8.33
2023-03-21T21:25:24.201Z,8.33
2023-03-21T21:27:52.607Z,8.34
2023-03-21T21:30:20.059Z,8.32
2023-03-21T21:32:46.860Z,8.27
2023-03-21T21:35:13.672Z,8.18
2023-03-21T21:37:42.061Z,8.14
2023-03-21T21:40:13.938Z,8.09
2023-03-21T21:42:42.832Z,8.05
2023-03-21T21:45:11.379Z,8.08
2023-03-21T21:47:38.431Z,8.12
2023-03-21T21:50:06.488Z,8.14
2023-03-21T21:52:33.343Z,8.15
2023-03-21T21:55:02.272Z,8.15
2023-03-21T21:57:34.129Z,8.13
2023-03-21T22:00:05.429Z,8.13
2023-03-21T22:02:40.324Z,8.11
2023-03-21T22:05:08.841Z,8.05
2023-03-21T22:07:37.534Z,7.95
2023-03-21T22:10:05.377Z,7.91
2023-03-21T22:12:32.383Z,7.91
2023-03-21T22:14:59.264Z,7.91
2023-03-21T22:17:26.469Z,7.89
2023-03-21T22:20:05.209Z,7.85
2023-03-21T22:22:33.849Z,7.77
2023-03-21T22:25:00.718Z,7.69
2023-03-21T22:27:27.487Z,7.70
2023-03-21T22:29:54.280Z,7.72
2023-03-21T22:32:21.485Z,7.74
2023-03-21T22:34:48.318Z,7.74
2023-03-21T22:37:15.544Z,7.74
2023-03-21T22:39:42.534Z,7.72
2023-03-21T22:42:09.280Z,7.69
2023-03-21T22:44:36.172Z,7.67
2023-03-21T22:47:05.316Z,7.66
2023-03-21T22:49:32.950Z,7.68
2023-03-21T22:52:00.745Z,7.69
2023-03-21T22:54:27.591Z,7.71
2023-03-21T22:56:54.457Z,7.72
2023-03-21T22:59:21.290Z,7.70
2023-03-21T23:01:49.326Z,7.69
2023-03-21T23:04:16.331Z,7.69
2023-03-21T23:06:43.885Z,7.69
2023-03-21T23:09:10.897Z,7.70
2023-03-21T23:11:38.666Z,7.68
2023-03-21T23:14:08.469Z,7.67
2023-03-21T23:16:38.469Z,7.66
2023-03-21T23:19:05.836Z,7.63
2023-03-21T23:21:34.640Z,7.63
2023-03-21T23:24:01.545Z,7.62
2023-03-21T23:26:28.648Z,7.63
2023-03-21T23:28:55.975Z,7.65
2023-03-21T23:31:26.072Z,7.65
2023-03-21T23:33:53.367Z,7.65
2023-03-21T23:36:21.346Z,7.63
2023-03-21T23:38:48.316Z,7.61
2023-03-21T23:41:19.249Z,7.56
2023-03-21T23:43:46.962Z,7.52
2023-03-21T23:46:20.649Z,7.46
2023-03-21T23:48:48.419Z,7.42
2023-03-21T23:51:17.139Z,7.41
2023-03-21T23:53:45.648Z,7.41
2023-03-21T23:56:16.902Z,7.41
2023-03-21T23:58:43.999Z,7.41
